createdAt,value
2022-08-29T00:04:11.355Z,19.90
2022-08-29T00:09:34.305Z,19.80
2022-08-29T00:14:57.328Z,19.70
2022-08-29T00:20:30.219Z,19.60
2022-08-29T00:25:57.306Z,19.40
2022-08-29T00:31:20.375Z,19.40
2022-08-29T00:36:46.163Z,19.30
2022-08-29T00:42:13.378Z,19.30
2022-08-29T00:47:44.342Z,19.20
2022-08-29T00:53:10.320Z,19.10
2022-08-29T00:58:39.344Z,19.10
2022-08-29T01:04:09.848Z,19.00
2022-08-29T01:09:40.348Z,18.90
2022-08-29T01:15:06.348Z,18.80
2022-08-29T01:20:39.343Z,18.70
2022-08-29T01:26:06.347Z,18.60
2022-08-29T01:31:56.300Z,18.50
2022-08-29T01:37:19.353Z,18.40
2022-08-29T01:42:44.369Z,18.30
2022-08-29T01:48:07.463Z,18.20
2022-08-29T01:53:30.365Z,18.10
2022-08-29T01:58:55.360Z,18.10
2022-08-29T02:04:18.379Z,18.00
2022-08-29T02:09:44.503Z,18.00
2022-08-29T02:15:10.387Z,17.90
2022-08-29T02:20:33.384Z,17.80
2022-08-29T02:25:56.383Z,17.80
2022-08-29T02:31:21.442Z,17.70
2022-08-29T02:36:45.386Z,17.60
2022-08-29T02:42:11.417Z,17.60
2022-08-29T02:47:36.395Z,17.40
2022-08-29T02:53:00.419Z,17.40
2022-08-29T02:58:24.386Z,17.30
2022-08-29T03:03:55.411Z,17.30
2022-08-29T03:09:18.419Z,17.20
2022-08-29T03:14:41.416Z,17.10
2022-08-29T03:20:06.424Z,17.00
2022-08-29T03:25:37.441Z,16.90
2022-08-29T03:31:00.482Z,16.90
2022-08-29T03:36:26.429Z,16.80
2022-08-29T03:41:50.435Z,16.80
2022-08-29T03:47:13.437Z,16.70
2022-08-29T03:52:38.492Z,16.70
2022-08-29T04:05:46.442Z,16.60
2022-08-29T04:11:18.475Z,16.60
2022-08-29T04:16:42.447Z,16.60
2022-08-29T04:22:05.463Z,16.50
2022-08-29T04:27:30.473Z,16.40
2022-08-29T04:32:53.478Z,16.30
2022-08-29T04:38:16.533Z,16.30
2022-08-29T04:43:41.483Z,16.20
2022-08-29T04:49:06.515Z,16.20
2022-08-29T04:54:32.478Z,16.10
2022-08-29T04:59:57.496Z,16.10
2022-08-29T05:05:29.520Z,16.00
2022-08-29T05:10:54.494Z,15.90
2022-08-29T05:16:21.581Z,15.90
2022-08-29T05:21:46.493Z,15.90
2022-08-29T05:27:12.530Z,15.90
2022-08-29T05:32:37.502Z,15.90
2022-08-29T05:38:00.515Z,16.00
2022-08-29T05:43:23.522Z,16.00
2022-08-29T05:48:49.524Z,16.00
2022-08-29T05:54:12.513Z,16.10
2022-08-29T05:59:35.515Z,16.10
2022-08-29T06:05:07.521Z,16.20
2022-08-29T06:10:33.523Z,16.20
2022-08-29T06:15:57.636Z,16.30
2022-08-29T06:21:23.571Z,16.40
2022-08-29T06:26:46.531Z,16.50
2022-08-29T06:32:09.537Z,16.70
2022-08-29T06:37:34.543Z,16.90
2022-08-29T06:42:57.573Z,17.10
2022-08-29T06:48:20.584Z,17.30
2022-08-29T06:53:45.567Z,17.50
2022-08-29T06:59:09.575Z,17.80
2022-08-29T07:04:32.560Z,18.00
2022-08-29T07:09:58.577Z,18.30
2022-08-29T07:15:21.940Z,18.50
2022-08-29T07:20:44.589Z,18.80
2022-08-29T07:26:16.678Z,19.10
2022-08-29T07:31:40.581Z,19.40
2022-08-29T07:37:05.909Z,19.70
2022-08-29T07:42:30.596Z,20.00
2022-08-29T07:47:53.588Z,20.20
2022-08-29T07:53:16.776Z,20.40
2022-08-29T07:58:41.614Z,20.60
2022-08-29T08:04:06.600Z,20.80
2022-08-29T08:09:31.644Z,21.00
2022-08-29T08:14:56.610Z,21.20
2022-08-29T08:20:20.650Z,21.40
2022-08-29T08:25:43.625Z,21.50
2022-08-29T08:31:08.684Z,21.70
2022-08-29T08:36:40.637Z,21.80
2022-08-29T08:42:09.623Z,21.80
2022-08-29T08:47:39.670Z,22.00
2022-08-29T08:53:06.639Z,22.20
2022-08-29T08:58:44.648Z,22.20
2022-08-29T09:04:23.656Z,22.40
2022-08-29T09:09:56.665Z,22.60
2022-08-29T09:15:24.655Z,22.80
2022-08-29T09:20:49.672Z,23.00
2022-08-29T09:26:12.662Z,23.20
2022-08-29T09:31:38.703Z,23.50
2022-08-29T09:37:04.673Z,23.70
2022-08-29T09:42:29.686Z,24.00
2022-08-29T09:47:52.682Z,24.20
2022-08-29T09:53:24.334Z,24.40
2022-08-29T09:58:50.714Z,24.60
2022-08-29T10:04:15.691Z,24.80
2022-08-29T10:09:42.721Z,24.90
2022-08-29T10:15:09.743Z,25.10
2022-08-29T10:20:34.695Z,25.30
2022-08-29T10:25:59.704Z,25.50
2022-08-29T10:31:27.716Z,25.70
2022-08-29T10:36:54.716Z,25.90
2022-08-29T10:42:25.914Z,26.20
2022-08-29T10:47:58.746Z,26.40
2022-08-29T10:53:26.720Z,26.50
2022-08-29T10:59:06.726Z,26.70
2022-08-29T11:04:34.741Z,26.80
2022-08-29T11:10:02.742Z,26.90
2022-08-29T11:15:35.756Z,27.00
2022-08-29T11:21:04.776Z,27.20
2022-08-29T11:26:36.744Z,27.40
2022-08-29T11:32:07.753Z,27.60
2022-08-29T11:37:54.760Z,27.80
2022-08-29T11:43:19.768Z,27.90
2022-08-29T11:48:46.780Z,27.90
2022-08-29T11:54:10.787Z,28.00
2022-08-29T12:00:04.796Z,28.20
2022-08-29T12:06:09.808Z,28.40
2022-08-29T12:12:06.783Z,28.60
2022-08-29T12:18:03.313Z,28.90
2022-08-29T12:23:31.830Z,29.10
2022-08-29T12:29:10.148Z,29.10
2022-08-29T12:34:52.820Z,29.10
2022-08-29T12:40:51.830Z,29.30
2022-08-29T12:46:17.892Z,29.50
2022-08-29T12:51:45.831Z,29.80
2022-08-29T12:57:08.823Z,30.00
2022-08-29T13:02:34.962Z,30.20
2022-08-29T13:08:11.056Z,30.20
2022-08-29T13:13:36.844Z,30.30
2022-08-29T13:19:10.897Z,30.30
2022-08-29T13:24:35.869Z,30.30
2022-08-29T13:29:58.944Z,30.30
2022-08-29T13:35:26.872Z,30.50
2022-08-29T13:41:00.862Z,30.70
2022-08-29T13:46:32.939Z,30.90
2022-08-29T13:51:55.893Z,31.10
2022-08-29T13:57:23.890Z,31.30
2022-08-29T14:02:47.957Z,31.50
2022-08-29T14:08:12.892Z,31.50
2022-08-29T14:13:37.893Z,31.60
2022-08-29T14:19:00.893Z,31.70
2022-08-29T14:24:29.068Z,31.80
2022-08-29T14:29:53.919Z,31.90
2022-08-29T14:35:27.616Z,32.00
2022-08-29T14:40:53.968Z,32.10
2022-08-29T14:46:18.998Z,32.10
2022-08-29T14:51:41.925Z,32.00
2022-08-29T14:57:05.997Z,31.70
2022-08-29T15:02:31.156Z,31.50
2022-08-29T15:07:54.950Z,31.50
2022-08-29T15:13:18.011Z,31.40
2022-08-29T15:19:24.805Z,31.50
2022-08-29T15:24:25.969Z,31.50
2022-08-29T15:29:52.968Z,31.50
2022-08-29T15:35:17.974Z,31.40
2022-08-29T15:40:41.066Z,31.40
2022-08-29T15:46:03.985Z,31.40
2022-08-29T15:51:28.963Z,31.50
2022-08-29T15:56:52.985Z,31.50
2022-08-29T16:02:16.999Z,31.70
2022-08-29T16:07:41.992Z,31.80
2022-08-29T16:13:05.010Z,31.90
2022-08-29T16:18:28.992Z,32.00
2022-08-29T16:23:54.021Z,32.10
2022-08-29T16:29:23.995Z,32.00
2022-08-29T16:34:50.030Z,32.00
2022-08-29T16:40:16.051Z,32.00
2022-08-29T16:45:40.046Z,31.90
2022-08-29T16:51:03.025Z,31.80
2022-08-29T16:56:29.038Z,31.80
2022-08-29T17:01:55.079Z,31.70
2022-08-29T17:07:18.039Z,31.60
2022-08-29T17:12:41.060Z,31.40
2022-08-29T17:18:04.040Z,31.30
2022-08-29T17:23:28.041Z,31.20
2022-08-29T17:28:54.057Z,31.00
2022-08-29T17:34:19.078Z,30.80
2022-08-29T17:39:42.085Z,30.60
2022-08-29T17:45:07.071Z,30.40
2022-08-29T17:50:30.058Z,30.20
2022-08-29T17:55:54.084Z,30.00
2022-08-29T18:01:19.153Z,29.80
2022-08-29T18:06:42.086Z,29.60
2022-08-29T18:12:07.123Z,29.40
2022-08-29T18:17:32.119Z,29.20
2022-08-29T18:22:56.097Z,28.90
2022-08-29T18:28:19.096Z,28.60
2022-08-29T18:33:59.545Z,28.40
2022-08-29T18:39:24.116Z,28.20
2022-08-29T18:44:48.123Z,27.90
2022-08-29T18:50:31.143Z,27.70
2022-08-29T18:55:56.127Z,27.50
2022-08-29T19:01:28.624Z,27.30
2022-08-29T19:06:53.129Z,27.10
2022-08-29T19:12:16.157Z,26.90
2022-08-29T19:17:39.153Z,26.70
2022-08-29T19:23:11.173Z,26.50
2022-08-29T19:28:35.227Z,26.40
2022-08-29T19:33:58.144Z,26.20
2022-08-29T19:39:23.151Z,26.00
2022-08-29T19:44:46.208Z,25.90
2022-08-29T19:50:11.164Z,25.70
2022-08-29T19:55:39.174Z,25.50
2022-08-29T20:01:09.252Z,25.30
2022-08-29T20:06:32.165Z,25.20
2022-08-29T20:11:57.191Z,25.00
2022-08-29T20:17:20.187Z,24.90
2022-08-29T20:22:45.212Z,24.70
2022-08-29T20:28:13.059Z,24.60
2022-08-29T20:33:41.394Z,24.40
2022-08-29T20:39:04.204Z,24.20
2022-08-29T20:44:33.110Z,24.00
2022-08-29T20:50:01.214Z,24.00
2022-08-29T20:55:24.221Z,23.80
2022-08-29T21:00:49.307Z,23.60
2022-08-29T21:06:12.236Z,23.50
2022-08-29T21:11:35.237Z,23.40
2022-08-29T21:17:00.271Z,23.20
2022-08-29T21:22:25.161Z,23.10
2022-08-29T21:27:48.371Z,23.00
2022-08-29T21:33:13.264Z,22.80
2022-08-29T21:38:36.255Z,22.70
2022-08-29T21:43:59.263Z,22.60
2022-08-29T21:49:25.256Z,22.60
2022-08-29T21:54:48.259Z,22.50
2022-08-29T22:00:21.282Z,22.40
2022-08-29T22:05:46.280Z,22.30
2022-08-29T22:11:11.275Z,22.20
2022-08-29T22:16:37.421Z,22.00
2022-08-29T22:22:05.278Z,21.90
2022-08-29T22:27:31.794Z,21.80
2022-08-29T22:32:55.307Z,21.70
2022-08-29T22:38:20.299Z,21.60
2022-08-29T22:43:43.303Z,21.50
2022-08-29T22:49:06.297Z,21.40
2022-08-29T22:54:43.294Z,21.20
2022-08-29T23:00:13.312Z,21.10
2022-08-29T23:05:37.329Z,20.90
2022-08-29T23:11:02.335Z,20.80
2022-08-29T23:16:25.334Z,20.70
2022-08-29T23:21:49.314Z,20.60
2022-08-29T23:27:16.321Z,20.40
2022-08-29T23:32:39.328Z,20.30
2022-08-29T23:38:02.334Z,20.20
2022-08-29T23:43:27.347Z,20.00
2022-08-29T23:48:51.355Z,20.00
2022-08-29T23:54:14.389Z,19.80
2022-08-29T23:59:57.346Z,19.80
